< < Back
Terminal Aerodrome Forecast


Current Version              Previous Versions:   1  2  3  4  5  6  7  8  9  

Terminal Aerodrome Forecast

742
FTUS42 KMLB 010900 AAA
TAFMCO
TAF AMD
KMCO 010915Z 0109/0206 VRB03KT P6SM FEW040 SCT250
     FM011400 19005KT P6SM SCT040 SCT250
     FM012000 21005KT P6SM VCTS BKN040CB
     FM020000 14006KT P6SM SCT040 BKN100 OVC120=



Latest METAR

766
SAUS70 KWBC 011400 RRX
MTRMCO
METAR KMCO 011353Z 17005KT 10SM SCT021 SCT250 29/23 A3000 RMK AO2 SLP158
T02890228


USA.gov is the U.S. government's official web portal to all federal, state and local government web resources and services.